Terminal Aerodrome Forecast
Issued by NWS

Home | Current Version | Previous Version | Text Only | Print | Product List | Glossary On
Versions: 1 2 3 4 5 6 7 8 9 10 11 12 13 14 15 16 17 18 19 20 21 22 23 24 25 26 27 28 29 30 31 32 33 34 35 36 37
000
FTUS45 KBOU 191124
TAFBJC
TAF
KBJC 191124Z 1912/2012 24007KT P6SM FEW140 SCT220
     FM191300 31006KT P6SM FEW140 SCT200
     FM191430 02011G19KT P6SM SCT140 SCT220
     FM191700 04010KT P6SM FEW090 SCT140
     FM192100 09011KT P6SM SCT090 BKN140
     FM200100 14010KT P6SM SCT090 BKN120
     FM200300 22007KT P6SM FEW090 BKN140
     FM200700 35010KT P6SM SCT080 BKN120=

USA.gov is the U.S. government's official web portal to all federal, state and local government web resources and services.